| time (UTC) | temp F | wind direction | speed MPH | gust MPH | rain 1hr in | rain 24hr in | rain mn in | humidity % | barometer mb |
| 20260510194606 | 50 | 264 | 4.0 | 11.0 | 0.00 | 0.00 | 0.00 | 59 | 1010.7 |
| 20260510193102 | 51 | 248 | 6.0 | 10.0 | 0.00 | 0.00 | 0.00 | 56 | 1010.6 |
| 20260510191602 | 51 | 270 | 4.0 | 16.0 | 0.00 | 0.00 | 0.00 | 55 | 1010.6 |
| 20260510190100 | 52 | 236 | 6.0 | 13.0 | 0.00 | 0.00 | 0.00 | 52 | 1010.4 |
| 20260510184604 | 53 | 209 | 4.0 | 10.0 | 0.00 | 0.00 | 0.00 | 51 | 1010.1 |
| 20260510183055 | 53 | 250 | 5.0 | 12.0 | 0.00 | 0.00 | 0.00 | 50 | 1009.9 |
| 20260510181607 | 54 | 245 | 8.0 | 20.0 | 0.00 | 0.00 | 0.00 | 48 | 1009.8 |
| 20260510180106 | 55 | 237 | 5.0 | 25.0 | 0.00 | 0.00 | 0.00 | 47 | 1009.5 |
| 20260510174553 | 55 | 307 | 7.0 | 20.0 | 0.00 | 0.00 | 0.00 | 45 | 1009.4 |
| 20260510173056 | 55 | 225 | 7.0 | 17.0 | 0.00 | 0.00 | 0.00 | 47 | 1009.5 |
| 20260510171556 | 56 | 262 | 9.0 | 23.0 | 0.00 | 0.00 | 0.00 | 47 | 1009.6 |
| 20260510170051 | 56 | 242 | 8.0 | 19.0 | 0.00 | 0.00 | 0.00 | 47 | 1009.5 |
| 20260510164559 | 56 | 244 | 15.0 | 24.0 | 0.00 | 0.00 | 0.00 | 45 | 1009.3 |
| 20260510163049 | 57 | 255 | 13.0 | 23.0 | 0.00 | 0.00 | 0.00 | 46 | 1009.3 |
| 20260510161548 | 56 | 247 | 16.0 | 25.0 | 0.00 | 0.00 | 0.00 | 46 | 1009.2 |
| 20260510160048 | 57 | 248 | 10.0 | 20.0 | 0.00 | 0.00 | 0.00 | 49 | 1009.2 |
| 20260510154553 | 57 | 242 | 12.0 | 26.0 | 0.00 | 0.00 | 0.00 | 47 | 1009.0 |
| 20260510153051 | 58 | 259 | 6.0 | 21.0 | 0.00 | 0.00 | 0.00 | 50 | 1009.0 |
| 20260510151546 | 57 | 252 | 6.0 | 19.0 | 0.00 | 0.00 | 0.00 | 48 | 1009.2 |
| 20260510150104 | 57 | 258 | 7.0 | 15.0 | 0.00 | 0.00 | 0.00 | 48 | 1009.1 |
| 20260510144542 | 57 | 304 | 8.0 | 15.0 | 0.00 | 0.00 | 0.00 | 46 | 1009.0 |
| 20260510143040 | 56 | 265 | 13.0 | 27.0 | 0.00 | 0.00 | 0.00 | 46 | 1009.3 |
| 20260510141540 | 57 | 263 | 12.0 | 24.0 | 0.00 | 0.00 | 0.00 | 45 | 1009.5 |
| 20260510140039 | 57 | 252 | 10.0 | 23.0 | 0.00 | 0.00 | 0.00 | 46 | 1009.5 |
| 20260510134539 | 57 | 255 | 16.0 | 26.0 | 0.00 | 0.00 | 0.00 | 46 | 1009.4 |
| 20260510133041 | 57 | 253 | 13.0 | 24.0 | 0.00 | 0.00 | 0.00 | 46 | 1009.4 |
| 20260510131538 | 58 | 259 | 11.0 | 23.0 | 0.00 | 0.00 | 0.00 | 45 | 1009.3 |
| 20260510130034 | 58 | 270 | 9.0 | 20.0 | 0.00 | 0.00 | 0.00 | 46 | 1009.4 |
| 20260510124533 | 58 | 271 | 11.0 | 21.0 | 0.00 | 0.00 | 0.00 | 45 | 1009.4 |
| 20260510123033 | 59 | 245 | 9.0 | 17.0 | 0.00 | 0.00 | 0.00 | 42 | 1009.6 |
| 20260510121531 | 58 | 237 | 9.0 | 20.0 | 0.00 | 0.00 | 0.00 | 45 | 1009.7 |
| 20260510120029 | 58 | 257 | 5.0 | 19.0 | 0.00 | 0.00 | 0.00 | 43 | 1009.9 |
| 20260510114529 | 58 | 255 | 11.0 | 21.0 | 0.00 | 0.00 | 0.00 | 42 | 1010.1 |
| 20260510113027 | 58 | 250 | 9.0 | 21.0 | 0.00 | 0.00 | 0.00 | 42 | 1010.1 |
| 20260510111526 | 58 | 301 | 10.0 | 27.0 | 0.00 | 0.00 | 0.00 | 42 | 1010.4 |
| 20260510110025 | 59 | 293 | 6.0 | 16.0 | 0.00 | 0.00 | 0.00 | 44 | 1010.7 |
| 20260510104522 | 57 | 240 | 9.0 | 19.0 | 0.00 | 0.00 | 0.00 | 43 | 1010.7 |
| 20260510103022 | 57 | 259 | 9.0 | 18.0 | 0.00 | 0.00 | 0.00 | 48 | 1010.6 |
| 20260510101521 | 57 | 250 | 7.0 | 22.0 | 0.00 | 0.00 | 0.00 | 48 | 1010.7 |
| 20260510100019 | 55 | 309 | 8.0 | 20.0 | 0.00 | 0.00 | 0.00 | 50 | 1010.8 |
| 20260510094534 | 55 | 301 | 8.0 | 19.0 | 0.00 | 0.00 | 0.00 | 49 | 1010.9 |
| 20260510093017 | 56 | 292 | 4.0 | 12.0 | 0.00 | 0.00 | 0.00 | 46 | 1010.8 |
| 20260510091515 | 55 | 293 | 5.0 | 11.0 | 0.00 | 0.00 | 0.00 | 48 | 1010.9 |
| 20260510090014 | 55 | 252 | 5.0 | 10.0 | 0.00 | 0.00 | 0.00 | 44 | 1010.8 |
| 20260510084518 | 55 | 245 | 4.0 | 10.0 | 0.00 | 0.00 | 0.00 | 43 | 1010.8 |
| 20260510083011 | 55 | 239 | 4.0 | 13.0 | 0.00 | 0.00 | 0.00 | 42 | 1010.8 |
| 20260510081508 | 54 | 333 | 2.0 | 6.0 | 0.00 | 0.00 | 0.00 | 44 | 1011.1 |
| 20260510080011 | 53 | 262 | 0.0 | 4.0 | 0.00 | 0.18 | 0.00 | 48 | 1011.0 |
| 20260510074504 | 53 | 307 | 2.0 | 5.0 | 0.00 | 0.18 | 0.00 | 50 | 1011.0 |
| 20260510073005 | 52 | 250 | 0.0 | 3.0 | 0.00 | 0.18 | 0.00 | 48 | 1010.8 |
| 20260510071601 | 52 | 214 | 0.0 | 2.0 | 0.00 | 0.18 | 0.00 | 53 | 1010.7 |
| 20260510070056 | 49 | 261 | 1.0 | 3.0 | 0.00 | 0.32 | 0.00 | 55 | 1010.7 |
| 20260510064603 | 48 | 157 | 0.0 | 2.0 | 0.00 | 0.32 | 0.00 | 57 | 1010.6 |
| 20260510063055 | 48 | 139 | 0.0 | 4.0 | 0.00 | 0.32 | 0.00 | 56 | 1010.6 |
| 20260510061558 | 47 | 200 | 0.0 | 3.0 | 0.00 | 0.32 | 0.00 | 57 | 1010.5 |
| 20260510060055 | 47 | 166 | 0.0 | 6.0 | 0.00 | 0.61 | 0.00 | 57 | 1010.3 |
| 20260510054552 | 47 | 172 | 0.0 | 5.0 | 0.00 | 0.61 | 0.00 | 57 | 1010.3 |
| 20260510053052 | 47 | 226 | 2.0 | 6.0 | 0.00 | 0.61 | 0.00 | 58 | 1010.3 |
| 20260510051601 | 46 | 158 | 1.0 | 5.0 | 0.00 | 0.61 | 0.00 | 59 | 1010.0 |
| 20260510050052 | 47 | 269 | 5.0 | 11.0 | 0.00 | 0.79 | 0.00 | 58 | 1010.0 |
| 20260510044558 | 47 | 257 | 7.0 | 15.0 | 0.00 | 0.79 | 0.00 | 58 | 1010.1 |
| 20260510043046 | 47 | 264 | 4.0 | 8.0 | 0.00 | 0.79 | 0.00 | 58 | 1010.3 |
| 20260510041545 | 47 | 210 | 2.0 | 8.0 | 0.00 | 0.79 | 0.00 | 57 | 1010.2 |
| 20260510040049 | 47 | 243 | 4.0 | 11.0 | 0.00 | 0.93 | 0.00 | 57 | 1010.3 |
| 20260510034543 | 47 | 243 | 3.0 | 9.0 | 0.00 | 0.93 | 0.00 | 57 | 1010.3 |
| 20260510033040 | 47 | 238 | 4.0 | 9.0 | 0.00 | 0.93 | 0.00 | 57 | 1010.3 |
| 20260510031538 | 47 | 259 | 2.0 | 7.0 | 0.00 | 0.93 | 0.00 | 56 | 1010.0 |
| 20260510030049 | 46 | 271 | 2.0 | 6.0 | 0.00 | 0.93 | 0.00 | 57 | 1010.2 |
| 20260510024533 | 46 | 210 | 1.0 | 5.0 | 0.00 | 0.93 | 0.00 | 57 | 1010.2 |
| 20260510023031 | 47 | 308 | 2.0 | 6.0 | 0.00 | 0.93 | 0.00 | 55 | 1010.2 |
| 20260510021531 | 47 | 259 | 3.0 | 8.0 | 0.00 | 0.93 | 0.00 | 56 | 1010.2 |
| 20260510020029 | 48 | 312 | 3.0 | 7.0 | 0.00 | 0.93 | 0.00 | 55 | 1010.1 |
| 20260510014527 | 47 | 261 | 2.0 | 7.0 | 0.00 | 0.93 | 0.00 | 56 | 1010.1 |
| 20260510013025 | 47 | 313 | 0.0 | 8.0 | 0.00 | 0.93 | 0.00 | 57 | 1010.1 |
| 20260510011524 | 48 | 231 | 2.0 | 9.0 | 0.00 | 0.93 | 0.00 | 54 | 1010.3 |
| 20260510010021 | 48 | 316 | 3.0 | 9.0 | 0.00 | 0.93 | 0.00 | 55 | 1010.5 |
| 20260510004519 | 48 | 160 | 1.0 | 5.0 | 0.00 | 0.93 | 0.00 | 55 | 1010.6 |
| 20260510003031 | 48 | 131 | 0.0 | 5.0 | 0.00 | 0.93 | 0.00 | 56 | 1010.6 |
| 20260510001521 | 48 | 231 | 1.0 | 11.0 | 0.00 | 0.93 | 0.00 | 54 | 1010.7 |
| 20260510000014 | 48 | 351 | 0.0 | 6.0 | 0.00 | 0.93 | 0.00 | 55 | 1010.9 |
| 20260509234523 | 49 | 334 | 0.0 | 7.0 | 0.00 | 0.93 | 0.00 | 54 | 1011.1 |
| 20260509233010 | 49 | 298 | 4.0 | 15.0 | 0.00 | 0.93 | 0.00 | 53 | 1011.0 |
| 20260509231513 | 49 | 28 | 1.0 | 12.0 | 0.00 | 0.93 | 0.00 | 52 | 1010.9 |
| 20260509230008 | 50 | 281 | 5.0 | 13.0 | 0.00 | 0.93 | 0.00 | 52 | 1011.1 |
| 20260509224506 | 50 | 232 | 6.0 | 15.0 | 0.00 | 0.93 | 0.00 | 51 | 1011.0 |
| 20260509223004 | 50 | 291 | 6.0 | 17.0 | 0.00 | 0.93 | 0.00 | 50 | 1010.9 |
| 20260509221501 | 49 | 235 | 3.0 | 15.0 | 0.00 | 0.93 | 0.00 | 53 | 1011.1 |
| 20260509220107 | 49 | 221 | 4.0 | 11.0 | 0.00 | 0.93 | 0.93 | 54 | 1011.1 |
| 20260509214602 | 48 | 248 | 0.0 | 10.0 | 0.00 | 0.93 | 0.93 | 58 | 1011.1 |
| 20260509213127 | 48 | 346 | 2.0 | 7.0 | 0.00 | 0.93 | 0.93 | 61 | 1010.9 |
| 20260509211556 | 48 | 266 | 1.0 | 7.0 | 0.00 | 0.93 | 0.93 | 61 | 1011.0 |
| 20260509210105 | 48 | 48 | 3.0 | 7.0 | 0.00 | 0.93 | 0.93 | 62 | 1010.9 |
| 20260509204556 | 48 | 316 | 3.0 | 11.0 | 0.00 | 0.93 | 0.93 | 61 | 1010.8 |
| 20260509203052 | 48 | 248 | 5.0 | 11.0 | 0.00 | 0.93 | 0.93 | 63 | 1010.5 |
| 20260509201550 | 49 | 229 | 2.0 | 7.0 | 0.00 | 0.93 | 0.93 | 63 | 1010.4 |
| 20260509200047 | 49 | 249 | 6.0 | 18.0 | 0.00 | 0.93 | 0.93 | 62 | 1009.7 |